Terminal Aerodrome Forecast
Issued by NWS Atlanta, GA

Home | Current Version | Previous Version | Text Only | Print | Product List | Glossary On
Versions: 1 2 3 4 5 6 7 8 9 10 11 12 13 14 15 16 17 18 19 20 21 22 23 24 25 26 27 28 29 30 31 32 33 34 35 36 37
000
FTUS42 KFFC 181936 AAA
TAFATL
TAF AMD
KATL 181936Z 1820/1924 27008KT P6SM VCSH FEW012 SCT050 BKN080
     FM182300 28005KT P6SM SCT070 BKN250
     FM190300 28004KT 3SM BR BKN250
     FM190900 29004KT 1SM BR SCT002 BKN250
     FM191500 28004KT 5SM BR SCT005 BKN120
     FM191900 28005KT P6SM -RA SCT015 BKN035=

USA.gov is the U.S. government's official web portal to all federal, state and local government web resources and services.